Terminal Aerodrome Forecast
Issued by NWS

Home | Current Version | Previous Version | Graphics & Text | Print | Product List | Glossary On
Versions: 1 2 3 4 5 6 7 8 9 10 11 12 13
877
FTUS45 KGGW 270526
TAFSDY
TAF
KSDY 270526Z 2706/2806 04004KT P6SM -RA OVC008
     FM272100 06011KT P6SM -RA OVC020
     FM280300 03007KT 6SM -RA OVC025
      AMD LTD TO CLD VIS AND WIND=

USA.gov is the U.S. government's official web portal to all federal, state and local government web resources and services.